Chelmsford, MA (01824)

2:06 PM EST on December 25, 2014 (GMT -0500)
Chelmsford | Change Station
CLOSE
Current Station
Personal Weather Station
Location: Chelmsford, MA
Elevation: 335 ft
Nearby Weather Stations

Elev 335 ft 42.61 °N, 71.38 °W | Updated 13 seconds ago

Partly Cloudy
Partly Cloudy
50.5 °F
Feels Like 50.5 °F
N
13.0
Wind Variable Wind from SE
Gusts 15.9 mph

Today
High -- | Low -- °F
--% Chance of Precip.
Yesterday
High -- | Low -- °F
Precip. -- in
7:13 AM 4:17 PM
Waxing Crescent, 18% visible
Pressure 29.67 in
Visibility 10.0 miles
Clouds Overcast 5500 ft
Dew Point 32 °F
Humidity 50%
Rainfall 0.07 in
Snow Depth Not available.
UV 0 out of 12
Pollen .10 out of 12
Air Quality Not available.
Flu Activity Not available.
METAR KBED 251856Z 29016G26KT 10SM OVC055 10/M01 A2963 RMK AO2 PK WND 27031/1846 SLP047 T01001006

More Conditions Fewer Conditions

Pressure 29.67 in
Visibility 10.0 miles
Clouds Overcast 5500 ft
Dew Point 32 °F
Humidity 50%
Rainfall 0.07 in
Snow Depth Not available.
UV 0 out of 12
Pollen .10 out of 12
Air Quality Not available.
Flu Activity Not available.
METAR KBED 251856Z 29016G26KT 10SM OVC055 10/M01 A2963 RMK AO2 PK WND 27031/1846 SLP047 T01001006

More Conditions Fewer Conditions

10-Day Weather Forecast

Almanac

Astronomy

Dec. 25, 2014 Rise Set
Actual Time
Civil Twilight
Nautical Twilight
Astronomical Twilight
Moon
Length of Visible Light
Length of Day
Tomorrow will be .
, % of the Moon is Illuminated

Today's Extremes

State Highs State Lows

Community

WunderPhotos

Upload Photos

1,780,364 photos uploaded!

WunderBlogs® & News

Nearby

Air Quality

  Air Quality AQ Index Pollutant
Not available.

Snow Depth

Station Depth Elevation

Earthquake Activity

City Distance Mag. Time & Date
Minimum magnitude displayed is 2.5.

Coastal Water Temperatures

Place Temperature

Nearby Weather Stations